createdAt,value
2023-05-15T00:00:06.984Z,98450.97
2023-05-15T00:02:39.541Z,98445.19
2023-05-15T00:05:07.498Z,98448.44
2023-05-15T00:07:35.455Z,98445.94
2023-05-15T00:10:03.023Z,98448.91
2023-05-15T00:12:30.087Z,98450.13
2023-05-15T00:14:57.153Z,98468.13
2023-05-15T00:17:26.031Z,98465.91
2023-05-15T00:19:53.342Z,98463.84
2023-05-15T00:22:20.463Z,98467.72
2023-05-15T00:24:47.495Z,98470.91
2023-05-15T00:27:14.542Z,98472.94
2023-05-15T00:29:41.891Z,98476.09
2023-05-15T00:32:09.014Z,98481.56
2023-05-15T00:34:37.572Z,98477.56
2023-05-15T00:37:04.812Z,98482.13
2023-05-15T00:39:31.923Z,98489.53
2023-05-15T00:42:01.963Z,98489.16
2023-05-15T00:44:31.107Z,98489.97
2023-05-15T00:46:59.940Z,98496.75
2023-05-15T00:49:28.325Z,98495.91
2023-05-15T00:51:57.443Z,98497.63
2023-05-15T00:54:25.174Z,98496.59
2023-05-15T00:56:52.790Z,98503.97
2023-05-15T00:59:21.703Z,98501.97
2023-05-15T01:01:49.085Z,98499.44
2023-05-15T01:04:16.265Z,98495.75
2023-05-15T01:06:43.543Z,98493.91
2023-05-15T01:09:12.953Z,98494.91
2023-05-15T01:11:42.226Z,98486.56
2023-05-15T01:14:10.335Z,98496.13
2023-05-15T01:16:38.972Z,98497.41
2023-05-15T01:19:06.660Z,98491.28
2023-05-15T01:21:53.082Z,98492.66
2023-05-15T01:24:34.174Z,98494.53
2023-05-15T01:27:07.743Z,98487.66
2023-05-15T01:29:37.956Z,98492.00
2023-05-15T01:32:09.371Z,98487.84
2023-05-15T01:34:42.554Z,98497.56
2023-05-15T01:37:11.152Z,98499.59
2023-05-15T01:39:39.661Z,98492.75
2023-05-15T01:42:09.452Z,98500.63
2023-05-15T01:44:37.683Z,98502.28
2023-05-15T01:47:07.701Z,98500.53
2023-05-15T01:49:36.925Z,98499.50
2023-05-15T01:52:07.214Z,98502.19
2023-05-15T01:54:36.406Z,98508.44
2023-05-15T01:57:04.290Z,98502.56
2023-05-15T01:59:33.346Z,98502.38
2023-05-15T02:02:04.132Z,98508.28
2023-05-15T02:04:33.285Z,98506.63
2023-05-15T02:07:01.310Z,98503.41
2023-05-15T02:09:29.090Z,98504.88
2023-05-15T02:11:57.207Z,98509.63
2023-05-15T02:14:24.959Z,98509.25
2023-05-15T02:16:53.822Z,98511.28
2023-05-15T02:19:21.047Z,98508.06
2023-05-15T02:21:48.988Z,98501.47
2023-05-15T02:24:16.614Z,98512.41
2023-05-15T02:26:45.670Z,98509.53
2023-05-15T02:29:18.654Z,98510.84
2023-05-15T02:31:49.249Z,98510.84
2023-05-15T02:34:23.559Z,98514.16
2023-05-15T02:36:52.208Z,98517.59
2023-05-15T02:39:20.323Z,98514.16
2023-05-15T02:41:48.210Z,98516.22
2023-05-15T02:44:17.748Z,98522.91
2023-05-15T02:46:44.846Z,98516.31
2023-05-15T02:49:12.528Z,98517.72
2023-05-15T02:51:41.374Z,98521.59
2023-05-15T02:54:08.833Z,98518.25
2023-05-15T02:56:36.122Z,98521.97
2023-05-15T02:59:04.122Z,98524.66
2023-05-15T03:01:31.735Z,98531.88
2023-05-15T03:04:00.300Z,98526.03
2023-05-15T03:06:27.929Z,98525.38
2023-05-15T03:08:57.290Z,98527.69
2023-05-15T03:11:25.475Z,98524.25
2023-05-15T03:13:52.512Z,98531.66
2023-05-15T03:16:19.608Z,98530.75
2023-05-15T03:18:46.808Z,98520.06
2023-05-15T03:21:13.969Z,98523.41
2023-05-15T03:23:41.341Z,98522.50
2023-05-15T03:26:10.362Z,98518.25
2023-05-15T03:28:37.618Z,98527.13
2023-05-15T03:31:04.969Z,98525.75
2023-05-15T03:33:32.581Z,98538.09
2023-05-15T03:35:59.950Z,98537.25
2023-05-15T03:38:27.056Z,98543.94
2023-05-15T03:40:54.089Z,98541.44
2023-05-15T03:43:22.769Z,98538.75
2023-05-15T03:45:49.956Z,98542.94
2023-05-15T03:48:17.188Z,98557.50
2023-05-15T03:50:45.588Z,98545.25
2023-05-15T03:53:13.237Z,98546.63
2023-05-15T03:55:40.982Z,98536.69
2023-05-15T03:58:08.051Z,98541.06
2023-05-15T04:00:36.974Z,98546.19
2023-05-15T04:03:04.156Z,98547.00
2023-05-15T04:05:31.438Z,98539.38
2023-05-15T04:07:58.976Z,98545.34
2023-05-15T04:10:26.519Z,98540.31
2023-05-15T04:12:53.705Z,98542.47
2023-05-15T04:15:21.766Z,98545.16
2023-05-15T04:17:51.688Z,98542.47
2023-05-15T04:20:19.391Z,98546.56
2023-05-15T04:22:46.929Z,98545.09
2023-05-15T04:25:14.962Z,98542.22
2023-05-15T04:27:42.642Z,98541.19
2023-05-15T04:30:10.756Z,98537.19
2023-05-15T04:32:38.100Z,98542.22
2023-05-15T04:35:07.950Z,98540.34
2023-05-15T04:37:35.145Z,98535.16
2023-05-15T04:40:02.763Z,98529.59
2023-05-15T04:42:29.989Z,98533.91
2023-05-15T04:44:57.133Z,98527.13
2023-05-15T04:47:24.251Z,98529.00
2023-05-15T04:49:51.441Z,98533.03
2023-05-15T04:52:20.278Z,98533.00
2023-05-15T04:54:47.367Z,98532.84
2023-05-15T04:57:14.552Z,98539.28
2023-05-15T04:59:41.693Z,98536.13
2023-05-15T05:02:09.460Z,98542.56
2023-05-15T05:04:37.148Z,98540.25
2023-05-15T05:07:05.096Z,98537.16
2023-05-15T05:09:33.719Z,98539.84
2023-05-15T05:12:01.231Z,98536.63
2023-05-15T05:14:28.484Z,98541.72
2023-05-15T05:16:55.646Z,98543.25
2023-05-15T05:19:22.997Z,98541.47
2023-05-15T05:21:50.187Z,98543.38
2023-05-15T05:24:17.376Z,98547.59
2023-05-15T05:26:46.152Z,98538.53
2023-05-15T05:29:13.200Z,98534.22
2023-05-15T05:31:40.364Z,98538.00
2023-05-15T05:34:08.067Z,98535.13
2023-05-15T05:36:35.180Z,98539.91
2023-05-15T05:39:02.343Z,98530.00
2023-05-15T05:41:29.862Z,98538.81
2023-05-15T05:43:58.380Z,98531.25
2023-05-15T05:46:25.608Z,98531.16
2023-05-15T05:48:52.922Z,98538.09
2023-05-15T05:51:20.374Z,98534.22
2023-05-15T05:53:47.687Z,98540.16
2023-05-15T05:56:15.160Z,98534.84
2023-05-15T05:58:42.298Z,98529.03
2023-05-15T06:01:11.068Z,98527.00
2023-05-15T06:03:38.683Z,98531.25
2023-05-15T06:06:06.226Z,98534.53
2023-05-15T06:08:33.339Z,98533.69
2023-05-15T06:11:00.521Z,98531.63
2023-05-15T06:13:27.700Z,98534.50
2023-05-15T06:15:54.906Z,98532.38
2023-05-15T06:18:24.090Z,98530.16
2023-05-15T06:20:51.341Z,98526.09
2023-05-15T06:23:18.658Z,98534.13
2023-05-15T06:25:46.442Z,98522.50
2023-05-15T06:28:13.702Z,98531.13
2023-05-15T06:30:41.013Z,98525.91
2023-05-15T06:33:08.786Z,98532.69
2023-05-15T06:35:37.534Z,98527.38
2023-05-15T06:38:04.644Z,98523.97
2023-05-15T06:40:32.654Z,98528.84
2023-05-15T06:42:59.839Z,98525.38
2023-05-15T06:45:27.619Z,98520.16
2023-05-15T06:47:55.270Z,98525.44
2023-05-15T06:50:22.526Z,98523.06
2023-05-15T06:52:51.788Z,98530.94
2023-05-15T06:55:19.341Z,98525.16
2023-05-15T06:57:46.559Z,98529.41
2023-05-15T07:00:14.296Z,98523.66
2023-05-15T07:02:41.724Z,98521.63
2023-05-15T07:05:09.164Z,98524.31
2023-05-15T07:07:36.362Z,98514.09
2023-05-15T07:10:05.652Z,98510.25
2023-05-15T07:12:32.787Z,98511.06
2023-05-15T07:15:00.492Z,98513.13
2023-05-15T07:17:28.440Z,98508.50
2023-05-15T07:19:56.222Z,98514.16
2023-05-15T07:22:23.821Z,98511.31
2023-05-15T07:24:51.265Z,98517.63
2023-05-15T07:27:20.741Z,98507.88
2023-05-15T07:29:48.378Z,98512.91
2023-05-15T07:32:16.073Z,98513.88
2023-05-15T07:34:44.390Z,98510.06
2023-05-15T07:37:12.529Z,98499.69
2023-05-15T07:39:40.488Z,98505.13
2023-05-15T07:42:07.620Z,98497.16
2023-05-15T07:44:36.413Z,98490.81
2023-05-15T07:47:03.659Z,98492.16
2023-05-15T07:49:31.030Z,98497.22
2023-05-15T07:51:58.488Z,98488.22
2023-05-15T07:54:26.408Z,98485.00
2023-05-15T07:56:53.895Z,98492.28
2023-05-15T07:59:21.777Z,98483.19
2023-05-15T08:01:50.776Z,98485.81
2023-05-15T08:04:18.523Z,98491.72
2023-05-15T08:06:46.749Z,98489.03
2023-05-15T08:09:14.627Z,98483.47
2023-05-15T08:11:41.661Z,98473.19
2023-05-15T08:14:09.589Z,98476.91
2023-05-15T08:16:38.183Z,98473.09
2023-05-15T08:19:08.216Z,98482.28
2023-05-15T08:21:36.961Z,98476.72
2023-05-15T08:24:05.038Z,98482.38
2023-05-15T08:26:33.143Z,98477.84
2023-05-15T08:29:00.928Z,98477.19
2023-05-15T08:31:29.331Z,98478.03
2023-05-15T08:33:57.970Z,98463.84
2023-05-15T08:36:27.053Z,98465.78
2023-05-15T08:38:54.800Z,98464.69
2023-05-15T08:41:39.192Z,98464.31
2023-05-15T08:44:09.064Z,98462.69
2023-05-15T08:46:37.403Z,98451.88
2023-05-15T08:49:07.432Z,98459.06
2023-05-15T08:51:36.078Z,98454.44
2023-05-15T08:54:03.906Z,98464.00
2023-05-15T08:56:31.967Z,98458.84
2023-05-15T08:58:59.110Z,98454.22
2023-05-15T09:01:27.607Z,98450.25
2023-05-15T09:03:55.775Z,98449.13
2023-05-15T09:06:23.085Z,98446.94
2023-05-15T09:08:54.467Z,98448.47
2023-05-15T09:11:23.401Z,98448.66
2023-05-15T09:13:51.549Z,98455.53
2023-05-15T09:16:19.984Z,98443.09
2023-05-15T09:18:49.566Z,98435.94
2023-05-15T09:21:24.770Z,98442.69
2023-05-15T09:23:56.025Z,98439.19
2023-05-15T09:26:24.238Z,98436.25
2023-05-15T09:28:51.908Z,98426.16
2023-05-15T09:31:19.816Z,98421.31
2023-05-15T09:33:47.841Z,98425.59
2023-05-15T09:36:22.336Z,98433.47
2023-05-15T09:38:58.444Z,98424.06
2023-05-15T09:41:28.299Z,98416.50
2023-05-15T09:43:56.399Z,98410.56
2023-05-15T09:46:24.427Z,98412.63
2023-05-15T09:48:54.813Z,98414.69
2023-05-15T09:51:22.383Z,98423.41
2023-05-15T09:53:50.436Z,98421.63
2023-05-15T09:56:18.680Z,98401.88
2023-05-15T09:58:54.098Z,98405.72
2023-05-15T10:01:21.852Z,98397.03
2023-05-15T10:03:57.146Z,98410.13
2023-05-15T10:06:24.739Z,98405.19
2023-05-15T10:08:52.573Z,98403.13
2023-05-15T10:11:19.916Z,98405.59
2023-05-15T10:13:47.751Z,98395.84
2023-05-15T10:16:20.970Z,98389.16
2023-05-15T10:18:48.802Z,98382.75
2023-05-15T10:21:16.754Z,98385.06
2023-05-15T10:23:44.478Z,98383.78
2023-05-15T10:26:14.592Z,98392.38
2023-05-15T10:28:43.494Z,98384.53
2023-05-15T10:31:13.125Z,98385.47
2023-05-15T10:33:42.870Z,98379.94
2023-05-15T10:36:10.553Z,98384.34
2023-05-15T10:38:38.785Z,98384.66
2023-05-15T10:41:16.435Z,98374.44
2023-05-15T10:43:45.993Z,98374.75
2023-05-15T10:46:13.661Z,98366.97
2023-05-15T10:48:43.206Z,98368.47
2023-05-15T10:51:14.683Z,98364.28
2023-05-15T10:53:41.994Z,98366.78
2023-05-15T10:56:12.660Z,98360.44
2023-05-15T10:58:39.911Z,98370.38
2023-05-15T11:01:24.686Z,98359.63
2023-05-15T11:04:04.448Z,98370.06
2023-05-15T11:06:31.731Z,98363.53
2023-05-15T11:09:13.734Z,98362.84
2023-05-15T11:11:54.112Z,98350.41
2023-05-15T11:14:22.316Z,98354.44
2023-05-15T11:17:00.643Z,98356.84
2023-05-15T11:19:36.770Z,98366.78
2023-05-15T11:22:16.075Z,98347.94
2023-05-15T11:24:53.082Z,98352.66
2023-05-15T11:27:21.060Z,98343.84
2023-05-15T11:30:04.041Z,98348.34
2023-05-15T11:32:41.252Z,98348.06
2023-05-15T11:35:11.812Z,98339.63
2023-05-15T11:37:42.000Z,98345.06
2023-05-15T11:40:12.948Z,98341.03
2023-05-15T11:42:40.521Z,98341.53
2023-05-15T11:45:08.557Z,98338.47
2023-05-15T11:47:36.261Z,98334.78
2023-05-15T11:50:04.630Z,98335.63
2023-05-15T11:52:33.965Z,98322.38
2023-05-15T11:55:02.068Z,98324.28
2023-05-15T11:57:29.701Z,98329.16
2023-05-15T11:59:56.921Z,98333.75
2023-05-15T12:02:24.196Z,98320.44
2023-05-15T12:04:51.499Z,98326.25
2023-05-15T12:07:18.732Z,98324.06
2023-05-15T12:09:51.835Z,98323.38
2023-05-15T12:12:19.639Z,98316.56
2023-05-15T12:14:46.752Z,98312.75
2023-05-15T12:17:13.876Z,98314.81
2023-05-15T12:19:41.033Z,98310.06
2023-05-15T12:22:08.168Z,98313.78
2023-05-15T12:24:37.935Z,98309.06
2023-05-15T12:27:06.724Z,98311.31
2023-05-15T12:29:33.809Z,98313.69
2023-05-15T12:32:01.026Z,98307.56
2023-05-15T12:34:28.424Z,98298.69
2023-05-15T12:36:55.560Z,98304.63
2023-05-15T12:39:22.767Z,98307.06
2023-05-15T12:41:49.940Z,98309.34
2023-05-15T12:44:18.773Z,98306.13
2023-05-15T12:46:45.951Z,98303.38
2023-05-15T12:49:13.410Z,98299.41
2023-05-15T12:51:43.696Z,98295.50
2023-05-15T12:54:17.221Z,98294.31
2023-05-15T12:56:44.693Z,98298.53
2023-05-15T12:59:12.020Z,98295.25
2023-05-15T13:01:41.879Z,98292.53
2023-05-15T13:04:09.840Z,98297.38
2023-05-15T13:06:46.612Z,98293.41
2023-05-15T13:09:14.585Z,98290.31
2023-05-15T13:11:43.690Z,98300.72
2023-05-15T13:14:10.923Z,98295.34
2023-05-15T13:16:38.144Z,98291.78
2023-05-15T13:19:06.804Z,98293.84
2023-05-15T13:21:33.939Z,98288.56
2023-05-15T13:24:02.363Z,98290.47
2023-05-15T13:26:30.029Z,98300.56
2023-05-15T13:28:57.555Z,98294.41
2023-05-15T13:31:25.443Z,98294.19
2023-05-15T13:33:52.563Z,98289.28
2023-05-15T13:36:21.266Z,98291.25
2023-05-15T13:38:48.529Z,98294.19
2023-05-15T13:41:15.593Z,98291.84
2023-05-15T13:43:42.630Z,98284.41
2023-05-15T13:46:12.104Z,98290.19
2023-05-15T13:48:39.328Z,98283.66
2023-05-15T13:51:06.446Z,98291.25
2023-05-15T13:53:35.167Z,98286.75
2023-05-15T13:56:02.594Z,98283.88
2023-05-15T13:58:30.050Z,98284.47
2023-05-15T14:00:57.736Z,98287.56
2023-05-15T14:03:25.338Z,98285.69
2023-05-15T14:05:53.015Z,98289.16
2023-05-15T14:08:20.606Z,98291.22
2023-05-15T14:10:49.487Z,98290.72
2023-05-15T14:13:16.526Z,98280.00
2023-05-15T14:15:43.577Z,98289.06
2023-05-15T14:18:12.040Z,98288.69
2023-05-15T14:20:39.738Z,98294.53
2023-05-15T14:23:07.313Z,98287.84
2023-05-15T14:25:34.713Z,98282.97
2023-05-15T14:28:03.252Z,98289.16
2023-05-15T14:30:30.564Z,98290.53
2023-05-15T14:32:58.247Z,98286.56
2023-05-15T14:35:25.303Z,98284.88
2023-05-15T14:37:53.017Z,98290.78
2023-05-15T14:40:20.736Z,98291.59
2023-05-15T14:42:47.914Z,98288.22
2023-05-15T14:45:17.121Z,98283.78
2023-05-15T14:47:44.688Z,98293.47
2023-05-15T14:50:12.027Z,98295.28
2023-05-15T14:52:39.194Z,98294.00
2023-05-15T14:55:09.350Z,98287.34
2023-05-15T14:57:38.034Z,98295.66
2023-05-15T15:00:07.392Z,98301.31
2023-05-15T15:02:37.116Z,98298.34
2023-05-15T15:05:04.637Z,98296.06
2023-05-15T15:07:32.321Z,98298.03
2023-05-15T15:09:59.406Z,98300.66
2023-05-15T15:12:26.571Z,98300.84
2023-05-15T15:14:53.817Z,98303.41
2023-05-15T15:17:22.096Z,98304.25
2023-05-15T15:19:51.139Z,98306.06
2023-05-15T15:22:18.719Z,98302.97
2023-05-15T15:24:46.424Z,98307.31
2023-05-15T15:27:13.466Z,98308.59
2023-05-15T15:29:41.021Z,98315.66
2023-05-15T15:32:08.761Z,98309.19
2023-05-15T15:34:36.866Z,98313.56
2023-05-15T15:37:05.790Z,98317.28
2023-05-15T15:39:33.272Z,98319.81
2023-05-15T15:42:00.599Z,98328.63
2023-05-15T15:44:27.649Z,98328.50
2023-05-15T15:46:54.986Z,98333.47
2023-05-15T15:49:25.035Z,98332.19
2023-05-15T15:51:52.162Z,98330.75
2023-05-15T15:54:20.804Z,98337.31
2023-05-15T15:56:47.836Z,98337.97
2023-05-15T15:59:14.919Z,98339.47
2023-05-15T16:01:42.185Z,98344.25
2023-05-15T16:04:10.123Z,98339.28
2023-05-15T16:06:38.154Z,98340.28
2023-05-15T16:09:05.866Z,98348.31
2023-05-15T16:11:35.094Z,98348.75
2023-05-15T16:14:02.582Z,98357.97
2023-05-15T16:16:30.279Z,98353.97
2023-05-15T16:18:57.610Z,98354.09
2023-05-15T16:21:24.752Z,98360.78
2023-05-15T16:23:51.798Z,98360.59
2023-05-15T16:26:18.964Z,98368.28
2023-05-15T16:28:47.802Z,98365.19
2023-05-15T16:31:15.050Z,98376.53
2023-05-15T16:33:42.813Z,98376.34
2023-05-15T16:36:10.548Z,98378.00
2023-05-15T16:38:37.857Z,98380.88
2023-05-15T16:41:05.479Z,98376.34
2023-05-15T16:43:32.776Z,98385.06
2023-05-15T16:46:01.781Z,98381.75
2023-05-15T16:48:29.145Z,98385.47
2023-05-15T16:50:56.466Z,98395.38
2023-05-15T16:53:23.791Z,98389.19
2023-05-15T16:55:50.896Z,98397.25
2023-05-15T16:58:17.984Z,98397.44
2023-05-15T17:00:45.262Z,98401.16
2023-05-15T17:03:16.781Z,98404.03
2023-05-15T17:05:44.161Z,98409.25
2023-05-15T17:08:11.211Z,98412.97
2023-05-15T17:10:38.979Z,98416.69
2023-05-15T17:13:06.186Z,98418.53
2023-05-15T17:15:33.405Z,98414.38
2023-05-15T17:18:00.653Z,98414.19
2023-05-15T17:20:29.306Z,98414.75
2023-05-15T17:22:56.413Z,98413.72
2023-05-15T17:25:23.948Z,98419.09
2023-05-15T17:27:51.449Z,98420.59
2023-05-15T17:30:18.671Z,98419.09
2023-05-15T17:32:45.821Z,98417.25
2023-05-15T17:35:13.134Z,98412.69
2023-05-15T17:37:41.665Z,98417.25
2023-05-15T17:40:09.464Z,98416.22
2023-05-15T17:42:36.676Z,98413.94
2023-05-15T17:45:04.104Z,98417.44
2023-05-15T17:47:31.884Z,98419.31
2023-05-15T17:49:59.547Z,98419.50
2023-05-15T17:52:28.218Z,98419.69
2023-05-15T17:54:57.394Z,98417.66
2023-05-15T17:57:24.532Z,98420.34
2023-05-15T17:59:52.223Z,98423.84
2023-05-15T18:02:19.307Z,98421.34
2023-05-15T18:04:46.370Z,98428.41
2023-05-15T18:07:13.543Z,98423.03
2023-05-15T18:09:40.874Z,98428.59
2023-05-15T18:12:09.741Z,98428.78
2023-05-15T18:14:37.167Z,98431.28
2023-05-15T18:17:05.533Z,98428.59
2023-05-15T18:19:32.729Z,98423.22
2023-05-15T18:21:59.804Z,98432.50
2023-05-15T18:24:26.932Z,98427.97
2023-05-15T18:26:54.118Z,98432.31
2023-05-15T18:29:23.528Z,98430.25
2023-05-15T18:31:50.985Z,98433.13
2023-05-15T18:34:18.159Z,98443.28
2023-05-15T18:36:45.234Z,98438.72
2023-05-15T18:39:12.365Z,98438.91
2023-05-15T18:41:39.454Z,98442.25
2023-05-15T18:44:06.556Z,98445.78
2023-05-15T18:46:35.117Z,98435.19
2023-05-15T18:49:02.212Z,98439.94
2023-05-15T18:51:29.303Z,98443.28
2023-05-15T18:53:56.391Z,98437.88
2023-05-15T18:56:23.607Z,98444.47
2023-05-15T18:58:51.271Z,98440.97
2023-05-15T19:01:18.448Z,98434.56
2023-05-15T19:03:47.184Z,98442.81
2023-05-15T19:06:14.279Z,98441.59
2023-05-15T19:08:41.332Z,98437.06
2023-05-15T19:11:08.449Z,98441.59
2023-05-15T19:13:35.580Z,98441.16
2023-05-15T19:16:02.650Z,98438.28
2023-05-15T19:18:29.721Z,98444.88
2023-05-15T19:20:58.296Z,98438.28
2023-05-15T19:23:25.491Z,98437.25
2023-05-15T19:25:52.587Z,98439.94
2023-05-15T19:28:19.804Z,98442.19
2023-05-15T19:30:46.904Z,98443.38
2023-05-15T19:33:15.572Z,98447.56
2023-05-15T19:35:42.763Z,98437.81
2023-05-15T19:38:11.318Z,98441.31
2023-05-15T19:40:38.544Z,98447.75
2023-05-15T19:43:06.133Z,98453.13
2023-05-15T19:45:33.361Z,98451.47
2023-05-15T19:48:01.005Z,98449.63
2023-05-15T19:50:28.349Z,98455.00
2023-05-15T19:52:55.538Z,98451.84
2023-05-15T19:55:24.182Z,98451.84
2023-05-15T19:57:55.310Z,98453.50
2023-05-15T20:00:22.756Z,98455.56
2023-05-15T20:02:49.958Z,98457.22
2023-05-15T20:05:17.184Z,98451.84
2023-05-15T20:07:44.274Z,98461.31
2023-05-15T20:10:11.825Z,98467.53
2023-05-15T20:12:40.316Z,98458.63
2023-05-15T20:15:08.120Z,98464.84
2023-05-15T20:17:35.208Z,98475.78
2023-05-15T20:20:02.914Z,98468.75
2023-05-15T20:22:30.089Z,98473.94
2023-05-15T20:24:57.160Z,98472.47
2023-05-15T20:27:24.327Z,98472.47
2023-05-15T20:29:52.954Z,98470.78
2023-05-15T20:32:20.077Z,98470.63
2023-05-15T20:34:47.175Z,98472.06
2023-05-15T20:37:14.290Z,98469.75
2023-05-15T20:39:41.879Z,98467.91
2023-05-15T20:42:08.997Z,98464.78
2023-05-15T20:44:36.432Z,98469.31
2023-05-15T20:47:05.333Z,98469.50
2023-05-15T20:49:32.652Z,98469.31
2023-05-15T20:52:00.147Z,98474.69
2023-05-15T20:54:27.305Z,98468.50
2023-05-15T20:56:54.372Z,98472.19
2023-05-15T20:59:21.464Z,98472.38
2023-05-15T21:01:48.758Z,98476.91
2023-05-15T21:04:17.473Z,98474.22
2023-05-15T21:06:44.672Z,98476.75
2023-05-15T21:09:11.858Z,98482.50
2023-05-15T21:11:39.000Z,98483.16
2023-05-15T21:14:06.524Z,98483.16
2023-05-15T21:16:34.322Z,98479.13
2023-05-15T21:19:01.463Z,98482.69
2023-05-15T21:21:30.156Z,98482.69
2023-05-15T21:23:57.299Z,98484.34
2023-05-15T21:26:24.360Z,98485.53
2023-05-15T21:28:51.981Z,98483.22
2023-05-15T21:31:19.112Z,98486.09
2023-05-15T21:33:46.249Z,98480.34
2023-05-15T21:36:13.366Z,98476.97
2023-05-15T21:38:42.019Z,98482.38
2023-05-15T21:41:09.123Z,98478.00
2023-05-15T21:43:36.238Z,98479.69
2023-05-15T21:46:03.440Z,98486.28
2023-05-15T21:48:30.912Z,98482.56
2023-05-15T21:50:58.045Z,98483.59
2023-05-15T21:53:25.442Z,98481.09
2023-05-15T21:55:58.535Z,98484.81
2023-05-15T21:58:26.285Z,98489.63
2023-05-15T22:00:53.351Z,98485.06
2023-05-15T22:03:21.464Z,98485.06
2023-05-15T22:05:48.856Z,98486.28
2023-05-15T22:08:16.087Z,98487.09
2023-05-15T22:10:43.239Z,98484.97
2023-05-15T22:13:11.738Z,98486.47
2023-05-15T22:15:38.785Z,98482.09
2023-05-15T22:18:06.180Z,98482.84
2023-05-15T22:20:33.241Z,98490.75
2023-05-15T22:23:00.550Z,98482.66
2023-05-15T22:25:27.709Z,98494.25
2023-05-15T22:27:54.773Z,98491.28
2023-05-15T22:30:23.315Z,98486.09
2023-05-15T22:32:50.462Z,98490.84
2023-05-15T22:35:17.689Z,98489.00
2023-05-15T22:37:44.876Z,98485.44
2023-05-15T22:40:12.444Z,98486.66
2023-05-15T22:42:39.474Z,98488.31
2023-05-15T22:45:07.331Z,98485.63
2023-05-15T22:47:35.972Z,98488.06
2023-05-15T22:50:03.166Z,98478.13
2023-05-15T22:52:30.349Z,98494.25
2023-05-15T22:54:57.404Z,98484.03
2023-05-15T22:57:24.630Z,98487.75
2023-05-15T22:59:51.665Z,98495.47
2023-05-15T23:02:18.804Z,98491.75
2023-05-15T23:04:47.479Z,98494.94
2023-05-15T23:07:14.532Z,98488.06
2023-05-15T23:09:41.628Z,98491.22
2023-05-15T23:12:08.836Z,98494.72
2023-05-15T23:14:35.883Z,98492.03
2023-05-15T23:17:03.257Z,98491.56
2023-05-15T23:19:30.358Z,98490.75
2023-05-15T23:21:59.388Z,98501.50
2023-05-15T23:24:26.602Z,98492.41
2023-05-15T23:26:53.724Z,98494.72
2023-05-15T23:29:20.781Z,98500.09
2023-05-15T23:31:47.841Z,98503.81
2023-05-15T23:34:14.966Z,98508.16
2023-05-15T23:36:42.269Z,98500.94
2023-05-15T23:39:10.790Z,98505.69
2023-05-15T23:41:37.832Z,98506.25
2023-05-15T23:44:05.568Z,98505.69
2023-05-15T23:46:32.829Z,98508.72
2023-05-15T23:48:59.953Z,98508.56
2023-05-15T23:51:27.278Z,98501.13
2023-05-15T23:53:54.393Z,98509.56
2023-05-15T23:56:23.003Z,98509.75
2023-05-15T23:58:50.108Z,98509.75
